createdAt,value
2019-04-26T00:02:05.544Z,13.27
2019-04-26T00:04:33.755Z,12.10
2019-04-26T00:07:01.349Z,15.27
2019-04-26T00:09:36.381Z,20.20
2019-04-26T00:12:23.599Z,22.83
2019-04-26T00:15:10.102Z,16.83
2019-04-26T00:17:43.831Z,19.63
2019-04-26T00:20:12.917Z,18.63
2019-04-26T00:22:40.896Z,19.17
2019-04-26T00:25:08.399Z,24.63
2019-04-26T00:27:36.187Z,21.40
2019-04-26T00:30:04.675Z,24.13
2019-04-26T00:32:32.611Z,19.27
2019-04-26T00:35:00.213Z,17.93
2019-04-26T00:37:28.241Z,20.20
2019-04-26T00:39:56.107Z,19.23
2019-04-26T00:42:24.220Z,25.67
2019-04-26T00:44:52.481Z,23.43
2019-04-26T00:47:21.922Z,22.60
2019-04-26T00:49:50.205Z,20.37
2019-04-26T00:52:18.274Z,27.13
2019-04-26T00:54:47.559Z,24.90
2019-04-26T00:57:16.532Z,20.80
2019-04-26T00:59:44.350Z,20.47
2019-04-26T01:02:18.578Z,19.23
2019-04-26T01:04:47.585Z,21.90
2019-04-26T01:07:15.700Z,18.87
2019-04-26T01:09:43.365Z,20.67
2019-04-26T01:12:11.293Z,18.33
2019-04-26T01:14:38.927Z,18.30
2019-04-26T01:17:06.902Z,20.07
2019-04-26T01:19:36.708Z,20.33
2019-04-26T01:22:08.523Z,23.10
2019-04-26T01:24:38.955Z,21.93
2019-04-26T01:27:07.749Z,23.17
2019-04-26T01:29:36.901Z,21.87
2019-04-26T01:32:10.844Z,22.57
2019-04-26T01:34:41.176Z,20.23
2019-04-26T01:37:09.676Z,25.87
2019-04-26T01:39:42.046Z,22.33
2019-04-26T01:42:16.755Z,25.17
2019-04-26T01:44:53.159Z,23.77
2019-04-26T01:47:22.235Z,25.63
2019-04-26T01:49:50.784Z,24.27
2019-04-26T01:52:19.076Z,21.10
2019-04-26T01:54:46.794Z,26.70
2019-04-26T01:57:15.449Z,21.63
2019-04-26T01:59:48.654Z,20.90
2019-04-26T02:02:32.651Z,20.23
2019-04-26T02:05:03.043Z,21.07
2019-04-26T02:07:40.761Z,18.73
2019-04-26T02:10:12.294Z,18.67
2019-04-26T02:12:43.702Z,19.90
2019-04-26T02:15:12.281Z,16.93
2019-04-26T02:17:41.626Z,15.67
2019-04-26T02:20:10.977Z,19.23
2019-04-26T02:22:50.164Z,16.53
2019-04-26T02:25:18.480Z,15.50
2019-04-26T02:27:59.128Z,22.83
2019-04-26T02:30:28.745Z,17.83
2019-04-26T02:32:56.880Z,23.17
2019-04-26T02:35:25.585Z,19.27
2019-04-26T02:37:54.247Z,23.53
2019-04-26T02:40:22.305Z,22.73
2019-04-26T02:42:50.401Z,23.77
2019-04-26T02:46:12.344Z,24.10
2019-04-26T02:49:33.048Z,24.77
2019-04-26T02:52:25.300Z,25.70
2019-04-26T02:55:10.214Z,31.00
2019-04-26T02:57:44.474Z,27.83
2019-04-26T03:00:13.329Z,28.50
2019-04-26T03:02:43.349Z,26.93
2019-04-26T03:05:12.517Z,24.63
2019-04-26T03:07:54.419Z,20.53
2019-04-26T03:10:31.821Z,23.93
2019-04-26T03:13:02.212Z,21.00
2019-04-26T03:15:51.394Z,21.40
2019-04-26T03:18:38.483Z,21.27
2019-04-26T03:21:16.521Z,23.93
2019-04-26T03:24:22.209Z,22.37
2019-04-26T03:27:16.359Z,27.77
2019-04-26T03:30:18.708Z,23.83
2019-04-26T03:33:52.425Z,21.13
2019-04-26T03:36:47.199Z,21.30
2019-04-26T03:39:34.247Z,24.00
2019-04-26T03:42:33.132Z,21.50
2019-04-26T03:45:25.466Z,18.40
2019-04-26T03:48:26.443Z,19.67
2019-04-26T03:51:04.873Z,19.40
2019-04-26T03:53:51.183Z,18.87
2019-04-26T03:57:13.795Z,17.50
2019-04-26T04:00:22.934Z,16.00
2019-04-26T04:03:37.847Z,15.87
2019-04-26T04:06:08.619Z,17.17
2019-04-26T04:08:48.209Z,15.80
2019-04-26T04:11:21.201Z,17.87
2019-04-26T04:13:55.593Z,17.73
2019-04-26T04:16:41.377Z,16.27
2019-04-26T04:19:33.929Z,14.37
2019-04-26T04:22:06.271Z,14.90
2019-04-26T04:24:45.055Z,13.47
2019-04-26T04:27:35.254Z,13.77
2019-04-26T04:30:15.047Z,14.63
2019-04-26T04:33:21.777Z,19.80
2019-04-26T04:35:54.352Z,12.97
2019-04-26T04:38:48.410Z,13.93
2019-04-26T04:41:36.416Z,13.60
2019-04-26T04:44:24.934Z,12.37
2019-04-26T04:47:25.842Z,12.17
2019-04-26T04:50:11.031Z,20.70
2019-04-26T04:53:06.131Z,15.83
2019-04-26T04:55:47.889Z,13.03
2019-04-26T04:58:19.697Z,14.20
2019-04-26T05:01:28.334Z,15.63
2019-04-26T05:04:05.623Z,12.03
2019-04-26T05:06:53.247Z,11.33
2019-04-26T05:09:31.159Z,13.63
2019-04-26T05:12:13.851Z,16.17
2019-04-26T05:15:09.759Z,15.57
2019-04-26T05:18:00.665Z,18.37
2019-04-26T05:20:45.610Z,12.53
2019-04-26T05:23:47.509Z,13.23
2019-04-26T05:27:01.976Z,12.27
2019-04-26T05:30:09.019Z,12.47
2019-04-26T05:33:10.449Z,12.53
2019-04-26T05:36:14.589Z,13.60
2019-04-26T05:38:51.422Z,10.40
2019-04-26T05:41:38.571Z,11.40
2019-04-26T05:44:34.555Z,12.87
2019-04-26T05:47:38.276Z,12.27
2019-04-26T05:51:23.119Z,10.40
2019-04-26T05:54:42.667Z,8.67
2019-04-26T05:57:42.451Z,11.70
2019-04-26T06:00:55.743Z,11.50
2019-04-26T06:04:17.801Z,10.43
2019-04-26T06:07:01.582Z,9.07
2019-04-26T06:10:32.969Z,8.90
2019-04-26T06:13:34.941Z,9.33
2019-04-26T06:16:40.349Z,11.67
2019-04-26T06:19:38.424Z,12.30
2019-04-26T06:22:27.006Z,10.70
2019-04-26T06:25:26.984Z,12.30
2019-04-26T06:28:02.882Z,14.57
2019-04-26T06:31:01.389Z,13.27
2019-04-26T06:33:48.646Z,9.27
2019-04-26T06:36:27.483Z,9.90
2019-04-26T06:39:27.893Z,11.13
2019-04-26T06:43:00.566Z,9.90
2019-04-26T06:46:10.263Z,19.60
2019-04-26T06:49:05.484Z,9.13
2019-04-26T06:51:39.767Z,24.63
2019-04-26T06:54:19.063Z,8.08
2019-04-26T06:57:37.245Z,17.70
2019-04-26T07:00:16.045Z,9.43
2019-04-26T07:03:13.765Z,11.90
2019-04-26T07:05:44.933Z,7.57
2019-04-26T07:08:39.493Z,7.50
2019-04-26T07:12:21.341Z,6.53
2019-04-26T07:15:27.932Z,5.78
2019-04-26T07:18:04.443Z,4.80
2019-04-26T07:20:48.691Z,6.25
2019-04-26T07:24:13.446Z,7.90
2019-04-26T07:27:20.304Z,5.30
2019-04-26T07:30:12.207Z,7.00
2019-04-26T07:33:46.318Z,8.83
2019-04-26T07:36:54.093Z,6.83
2019-04-26T07:39:47.015Z,6.43
2019-04-26T07:42:47.685Z,6.20
2019-04-26T07:45:40.392Z,6.35
2019-04-26T07:48:33.484Z,9.95
2019-04-26T07:51:44.063Z,6.72
2019-04-26T07:55:04.898Z,7.95
2019-04-26T07:58:22.507Z,8.48
2019-04-26T08:01:14.051Z,8.20
2019-04-26T08:03:54.198Z,5.23
2019-04-26T08:06:56.370Z,4.05
2019-04-26T08:09:27.564Z,7.25
2019-04-26T08:12:06.234Z,4.40
2019-04-26T08:14:48.894Z,6.65
2019-04-26T08:17:51.636Z,7.92
2019-04-26T08:20:43.461Z,5.87
2019-04-26T08:23:28.163Z,5.92
2019-04-26T08:25:46.638Z,6.28
2019-04-26T08:28:17.936Z,5.92
2019-04-26T08:30:48.284Z,6.35
2019-04-26T08:33:23.109Z,6.92
2019-04-26T08:35:53.346Z,5.50
2019-04-26T08:38:23.230Z,7.20
2019-04-26T08:40:52.171Z,5.92
2019-04-26T08:43:41.424Z,7.87
2019-04-26T08:46:24.490Z,5.30
2019-04-26T08:49:02.103Z,7.45
2019-04-26T08:51:33.701Z,5.95
2019-04-26T08:54:05.564Z,6.58
2019-04-26T08:56:37.072Z,5.85
2019-04-26T08:59:16.988Z,5.85
2019-04-26T09:01:52.982Z,6.37
2019-04-26T09:04:39.978Z,6.70
2019-04-26T09:07:14.389Z,5.40
2019-04-26T09:09:56.677Z,7.12
2019-04-26T09:12:23.237Z,5.35
2019-04-26T09:14:54.770Z,7.75
2019-04-26T09:17:22.268Z,8.95
2019-04-26T09:19:50.481Z,6.40
2019-04-26T09:22:26.552Z,7.50
2019-04-26T09:25:12.250Z,3.92
2019-04-26T09:27:58.922Z,9.93
2019-04-26T09:30:34.102Z,4.67
2019-04-26T09:33:12.965Z,4.45
2019-04-26T09:35:41.860Z,5.58
2019-04-26T09:38:09.431Z,7.55
2019-04-26T09:40:37.585Z,4.37
2019-04-26T09:43:24.342Z,10.45
2019-04-26T09:46:10.172Z,10.68
2019-04-26T09:48:54.008Z,7.00
2019-04-26T09:51:21.914Z,6.10
2019-04-26T09:53:49.523Z,5.55
2019-04-26T09:56:17.142Z,4.53
2019-04-26T09:58:45.108Z,6.05
2019-04-26T10:01:12.636Z,4.55
2019-04-26T10:03:40.251Z,5.33
2019-04-26T10:06:08.363Z,3.02
2019-04-26T10:08:36.070Z,2.80
2019-04-26T10:11:05.738Z,2.95
2019-04-26T10:13:39.671Z,8.58
2019-04-26T10:16:23.826Z,4.37
2019-04-26T10:18:58.359Z,7.58
2019-04-26T10:21:25.883Z,3.50
2019-04-26T10:23:53.503Z,3.83
2019-04-26T10:26:23.151Z,3.02
2019-04-26T10:28:52.149Z,7.10
2019-04-26T10:31:19.849Z,5.37
2019-04-26T10:33:47.491Z,3.80
2019-04-26T10:36:47.395Z,6.20
2019-04-26T10:39:17.033Z,1.95
2019-04-26T10:41:44.605Z,3.42
2019-04-26T10:44:12.463Z,4.70
2019-04-26T10:46:40.157Z,9.65
2019-04-26T10:49:36.267Z,3.60
2019-04-26T10:52:06.173Z,5.03
2019-04-26T10:54:36.887Z,4.30
2019-04-26T10:57:11.840Z,1.92
2019-04-26T10:59:45.573Z,5.67
2019-04-26T11:02:17.179Z,3.22
2019-04-26T11:04:44.789Z,7.83
2019-04-26T11:07:12.412Z,3.05
2019-04-26T11:09:40.129Z,2.05
2019-04-26T11:12:11.813Z,3.80
2019-04-26T11:14:40.115Z,3.40
2019-04-26T11:17:11.612Z,2.25
2019-04-26T11:19:37.368Z,4.10
2019-04-26T11:22:05.077Z,3.08
2019-04-26T11:24:32.899Z,4.60
2019-04-26T11:27:00.821Z,4.00
2019-04-26T11:29:28.735Z,2.15
2019-04-26T11:31:58.422Z,3.35
2019-04-26T11:34:27.786Z,7.75
2019-04-26T11:36:55.744Z,2.08
2019-04-26T11:39:23.807Z,5.08
2019-04-26T11:41:52.489Z,2.22
2019-04-26T11:44:23.423Z,1.72
2019-04-26T11:46:49.477Z,1.98
2019-04-26T11:49:17.693Z,3.67
2019-04-26T11:51:45.345Z,8.45
2019-04-26T11:54:13.128Z,5.67
2019-04-26T11:56:41.213Z,1.75
2019-04-26T11:59:09.116Z,3.00
2019-04-26T12:01:40.494Z,2.30
2019-04-26T12:04:22.587Z,6.37
2019-04-26T12:06:57.476Z,4.20
2019-04-26T12:09:39.634Z,3.70
2019-04-26T12:12:09.330Z,2.62
2019-04-26T12:14:36.596Z,2.87
2019-04-26T12:17:04.683Z,4.12
2019-04-26T12:19:32.900Z,11.60
2019-04-26T12:22:04.292Z,4.47
2019-04-26T12:24:34.309Z,2.47
2019-04-26T12:26:59.727Z,3.70
2019-04-26T12:29:27.631Z,4.05
2019-04-26T12:31:57.098Z,2.77
2019-04-26T12:34:25.271Z,2.37
2019-04-26T12:36:53.290Z,3.98
2019-04-26T12:39:21.405Z,2.83
2019-04-26T12:41:48.880Z,2.30
2019-04-26T12:44:16.505Z,7.85
2019-04-26T12:47:03.441Z,3.45
2019-04-26T12:49:32.112Z,1.32
2019-04-26T12:52:00.017Z,2.35
2019-04-26T12:54:28.295Z,1.25
2019-04-26T12:56:56.263Z,2.05
2019-04-26T12:59:26.597Z,2.67
2019-04-26T13:02:05.080Z,4.80
2019-04-26T13:04:35.513Z,3.60
2019-04-26T13:07:07.091Z,4.60
2019-04-26T13:09:34.383Z,1.50
2019-04-26T13:12:14.785Z,2.25
2019-04-26T13:15:05.673Z,3.52
2019-04-26T13:17:38.987Z,2.98
2019-04-26T13:20:07.569Z,3.52
2019-04-26T13:22:45.290Z,7.28
2019-04-26T13:25:15.480Z,2.15
2019-04-26T13:27:36.810Z,5.60
2019-04-26T13:30:06.772Z,2.45
2019-04-26T13:32:34.870Z,3.40
2019-04-26T13:35:02.486Z,1.75
2019-04-26T13:37:32.229Z,1.10
2019-04-26T13:40:00.072Z,2.58
2019-04-26T13:42:27.695Z,2.45
2019-04-26T13:45:10.927Z,2.02
2019-04-26T13:47:56.816Z,3.92
2019-04-26T13:50:40.678Z,1.17
2019-04-26T13:53:08.583Z,0.70
2019-04-26T13:55:36.426Z,3.98
2019-04-26T13:58:04.269Z,1.85
2019-04-26T14:00:32.417Z,3.60
2019-04-26T14:02:59.963Z,1.05
2019-04-26T14:05:27.584Z,2.08
2019-04-26T14:07:55.506Z,1.15
2019-04-26T14:10:23.670Z,2.40
2019-04-26T14:12:51.387Z,1.45
2019-04-26T14:15:19.641Z,0.60
2019-04-26T14:17:47.585Z,2.70
2019-04-26T14:20:15.493Z,1.02
2019-04-26T14:22:51.278Z,2.98
2019-04-26T14:25:21.252Z,1.95
2019-04-26T14:27:51.542Z,3.85
2019-04-26T14:30:19.832Z,0.78
2019-04-26T14:32:47.453Z,2.80
2019-04-26T14:35:17.088Z,4.28
2019-04-26T14:37:45.523Z,1.75
2019-04-26T14:40:17.582Z,2.80
2019-04-26T14:42:47.287Z,1.70
2019-04-26T14:45:23.417Z,0.78
2019-04-26T14:47:47.424Z,0.95
2019-04-26T14:50:14.505Z,3.00
2019-04-26T14:52:42.702Z,2.52
2019-04-26T14:55:10.287Z,2.92
2019-04-26T14:57:37.868Z,1.95
2019-04-26T15:00:07.625Z,0.60
2019-04-26T15:02:56.280Z,1.75
2019-04-26T15:05:58.594Z,1.42
2019-04-26T15:08:26.223Z,1.95
2019-04-26T15:11:00.764Z,4.67
2019-04-26T15:13:23.659Z,4.22
2019-04-26T15:15:52.565Z,3.08
2019-04-26T15:18:20.396Z,1.25
2019-04-26T15:20:48.047Z,1.65
2019-04-26T15:23:19.489Z,2.85
2019-04-26T15:25:48.497Z,3.83
2019-04-26T15:28:14.855Z,2.30
2019-04-26T15:30:46.673Z,1.12
2019-04-26T15:33:12.750Z,0.80
2019-04-26T15:35:42.219Z,4.12
2019-04-26T15:38:10.055Z,0.95
2019-04-26T15:41:05.475Z,3.08
2019-04-26T15:43:42.790Z,1.98
2019-04-26T15:46:30.121Z,4.00
2019-04-26T15:49:36.883Z,2.83
2019-04-26T15:52:04.877Z,0.37
2019-04-26T15:54:32.520Z,1.32
2019-04-26T15:57:02.012Z,1.72
2019-04-26T15:59:32.603Z,1.17
2019-04-26T16:02:02.277Z,0.20
2019-04-26T16:04:30.246Z,0.13
2019-04-26T16:06:58.070Z,0.20
2019-04-26T16:09:25.723Z,0.10
2019-04-26T16:11:55.243Z,0.10
2019-04-26T16:14:26.451Z,0.42
2019-04-26T16:16:52.806Z,0.53
2019-04-26T16:19:20.442Z,0.95
2019-04-26T16:21:54.241Z,0.20
2019-04-26T16:24:18.763Z,1.75
2019-04-26T16:26:50.995Z,0.40
2019-04-26T16:29:42.504Z,0.35
2019-04-26T16:32:28.645Z,1.85
2019-04-26T16:34:56.350Z,0.60
2019-04-26T16:37:24.003Z,2.37
2019-04-26T16:39:51.716Z,0.35
2019-04-26T16:42:19.546Z,1.07
2019-04-26T16:44:48.174Z,0.13
2019-04-26T16:47:15.806Z,0.60
2019-04-26T16:49:46.485Z,0.45
2019-04-26T16:52:14.033Z,0.10
2019-04-26T16:54:42.417Z,2.67
2019-04-26T16:57:11.602Z,1.82
2019-04-26T16:59:46.825Z,1.02
2019-04-26T17:02:10.647Z,0.88
2019-04-26T17:04:38.250Z,0.50
2019-04-26T17:07:06.157Z,3.22
2019-04-26T17:09:54.365Z,2.87
2019-04-26T17:12:05.133Z,1.85
2019-04-26T17:14:34.171Z,0.95
2019-04-26T17:17:03.215Z,0.42
2019-04-26T17:19:35.851Z,0.25
2019-04-26T17:22:23.337Z,0.30
2019-04-26T17:25:08.623Z,1.10
2019-04-26T17:27:42.647Z,1.50
2019-04-26T17:30:09.009Z,1.55
2019-04-26T17:32:36.913Z,0.80
2019-04-26T17:35:07.437Z,2.37
2019-04-26T17:37:34.723Z,1.37
2019-04-26T17:40:02.365Z,1.47
2019-04-26T17:42:35.864Z,0.65
2019-04-26T17:45:04.366Z,3.20
2019-04-26T17:47:34.671Z,1.62
2019-04-26T17:50:02.774Z,0.47
2019-04-26T17:52:29.805Z,1.47
2019-04-26T17:54:57.510Z,2.45
2019-04-26T17:57:34.748Z,0.70
2019-04-26T18:00:07.218Z,2.08
2019-04-26T18:02:40.231Z,1.42
2019-04-26T18:05:00.610Z,0.98
2019-04-26T18:07:39.852Z,0.53
2019-04-26T18:09:57.038Z,1.87
2019-04-26T18:12:24.911Z,3.83
2019-04-26T18:14:52.605Z,1.27
2019-04-26T18:17:38.662Z,4.00
2019-04-26T18:20:27.633Z,0.62
2019-04-26T18:23:03.485Z,3.58
2019-04-26T18:25:32.498Z,1.02
2019-04-26T18:28:00.146Z,1.98
2019-04-26T18:30:28.278Z,1.95
2019-04-26T18:32:55.922Z,2.65
2019-04-26T18:35:23.913Z,0.75
2019-04-26T18:37:53.710Z,1.80
2019-04-26T18:40:23.051Z,1.32
2019-04-26T18:42:50.851Z,3.43
2019-04-26T18:45:28.041Z,5.58
2019-04-26T18:47:48.198Z,0.78
2019-04-26T18:50:16.541Z,2.35
2019-04-26T18:53:14.286Z,1.75
2019-04-26T18:55:43.834Z,1.95
2019-04-26T18:58:11.507Z,1.22
2019-04-26T19:00:40.645Z,2.02
2019-04-26T19:03:08.774Z,3.67
2019-04-26T19:05:36.537Z,1.77
2019-04-26T19:08:05.130Z,3.67
2019-04-26T19:10:34.353Z,1.07
2019-04-26T19:13:11.928Z,1.90
2019-04-26T19:15:51.544Z,0.90
2019-04-26T19:18:33.682Z,0.82
2019-04-26T19:21:19.719Z,0.62
2019-04-26T19:23:47.956Z,0.60
2019-04-26T19:26:16.314Z,2.90
2019-04-26T19:28:44.563Z,0.80
2019-04-26T19:31:12.869Z,0.62
2019-04-26T19:33:40.684Z,0.50
2019-04-26T19:36:08.291Z,1.12
2019-04-26T19:38:35.936Z,1.45
2019-04-26T19:41:03.706Z,0.53
2019-04-26T19:43:34.994Z,0.40
2019-04-26T19:46:12.773Z,1.22
2019-04-26T19:49:00.061Z,1.37
2019-04-26T19:51:52.053Z,3.58
2019-04-26T19:54:32.517Z,0.80
2019-04-26T19:57:01.053Z,0.90
2019-04-26T19:59:33.159Z,1.40
2019-04-26T20:01:58.478Z,2.37
2019-04-26T20:04:30.624Z,0.97
2019-04-26T20:06:56.364Z,0.98
2019-04-26T20:09:26.405Z,2.20
2019-04-26T20:11:58.108Z,1.20
2019-04-26T20:14:39.522Z,0.97
2019-04-26T20:16:53.942Z,1.23
2019-04-26T20:19:32.381Z,0.90
2019-04-26T20:21:52.700Z,1.80
2019-04-26T20:24:20.443Z,1.57
2019-04-26T20:26:48.757Z,2.00
2019-04-26T20:29:16.613Z,2.77
2019-04-26T20:32:02.056Z,1.87
2019-04-26T20:34:29.857Z,1.50
2019-04-26T20:36:58.166Z,2.13
2019-04-26T20:39:26.197Z,2.80
2019-04-26T20:42:01.147Z,2.40
2019-04-26T20:44:28.272Z,2.13
2019-04-26T20:46:52.539Z,2.00
2019-04-26T20:49:21.840Z,1.87
2019-04-26T20:51:49.630Z,3.87
2019-04-26T20:54:17.967Z,1.50
2019-04-26T20:56:46.106Z,1.93
2019-04-26T20:59:16.760Z,1.83
2019-04-26T21:01:46.624Z,1.47
2019-04-26T21:04:33.808Z,3.45
2019-04-26T21:06:44.305Z,1.57
2019-04-26T21:09:14.328Z,2.00
2019-04-26T21:14:26.269Z,1.40
2019-04-26T21:16:53.867Z,2.17
2019-04-26T21:19:22.112Z,1.67
2019-04-26T21:21:50.415Z,2.80
2019-04-26T21:24:23.459Z,1.33
2019-04-26T21:27:09.818Z,5.07
2019-04-26T21:29:59.171Z,1.40
2019-04-26T21:32:44.722Z,1.47
2019-04-26T21:35:14.732Z,2.20
2019-04-26T21:37:49.482Z,6.33
2019-04-26T21:40:40.092Z,1.00
2019-04-26T21:43:07.765Z,3.13
2019-04-26T21:45:35.384Z,1.57
2019-04-26T21:48:06.708Z,4.47
2019-04-26T21:50:35.740Z,2.30
2019-04-26T21:53:05.114Z,2.33
2019-04-26T21:55:35.298Z,2.10
2019-04-26T21:58:00.756Z,4.87
2019-04-26T22:00:51.316Z,5.40
2019-04-26T22:03:19.559Z,5.30
2019-04-26T22:05:49.823Z,4.43
2019-04-26T22:08:24.597Z,6.97
2019-04-26T22:10:48.603Z,1.97
2019-04-26T22:13:23.397Z,4.37
2019-04-26T22:16:09.529Z,4.47
2019-04-26T22:18:46.583Z,2.83
2019-04-26T22:21:33.999Z,2.97
2019-04-26T22:24:16.114Z,3.70
2019-04-26T22:26:47.694Z,5.40
2019-04-26T22:29:16.560Z,3.97
2019-04-26T22:31:43.064Z,3.53
2019-04-26T22:34:12.824Z,4.33
2019-04-26T22:36:40.901Z,6.53
2019-04-26T22:39:16.452Z,3.22
2019-04-26T22:41:44.363Z,6.10
2019-04-26T22:44:18.331Z,6.13
2019-04-26T22:47:14.668Z,3.67
2019-04-26T22:49:45.152Z,7.20
2019-04-26T22:52:16.249Z,8.47
2019-04-26T22:54:42.810Z,6.53
2019-04-26T22:57:13.215Z,5.30
2019-04-26T22:59:43.301Z,4.10
2019-04-26T23:02:13.826Z,7.47
2019-04-26T23:04:41.957Z,3.10
2019-04-26T23:07:10.348Z,5.00
2019-04-26T23:09:38.600Z,6.13
2019-04-26T23:12:25.352Z,9.33
2019-04-26T23:15:09.707Z,3.73
2019-04-26T23:17:56.565Z,5.10
2019-04-26T23:20:43.062Z,5.10
2019-04-26T23:23:10.657Z,6.90
2019-04-26T23:25:38.557Z,8.00
2019-04-26T23:28:06.083Z,6.07
2019-04-26T23:30:33.973Z,8.73
2019-04-26T23:33:02.152Z,9.53
2019-04-26T23:35:29.773Z,7.33
2019-04-26T23:38:00.961Z,7.40
2019-04-26T23:40:28.916Z,6.47
2019-04-26T23:42:56.259Z,14.97
2019-04-26T23:45:25.040Z,5.90
2019-04-26T23:47:53.065Z,9.10
2019-04-26T23:50:20.643Z,6.27
2019-04-26T23:52:49.499Z,4.13
2019-04-26T23:55:18.168Z,7.73
